sensor_id;sensor_type;location;lat;lon;timestamp;temperature;humidity
14850;DHT22;7517;48.400;11.770;2022-11-20T00:01:30;11.00;84.10
14850;DHT22;7517;48.400;11.770;2022-11-20T00:03:58;11.00;84.00
14850;DHT22;7517;48.400;11.770;2022-11-20T00:06:27;11.00;84.00
14850;DHT22;7517;48.400;11.770;2022-11-20T00:08:57;11.00;83.90
14850;DHT22;7517;48.400;11.770;2022-11-20T00:11:27;11.00;83.90
14850;DHT22;7517;48.400;11.770;2022-11-20T00:13:57;11.00;84.00
14850;DHT22;7517;48.400;11.770;2022-11-20T00:16:27;11.00;84.10
14850;DHT22;7517;48.400;11.770;2022-11-20T00:18:56;11.00;83.90
14850;DHT22;7517;48.400;11.770;2022-11-20T00:21:24;11.00;83.70
14850;DHT22;7517;48.400;11.770;2022-11-20T00:23:54;11.00;83.60
14850;DHT22;7517;48.400;11.770;2022-11-20T00:26:25;11.00;83.60
14850;DHT22;7517;48.400;11.770;2022-11-20T00:28:54;11.00;83.70
14850;DHT22;7517;48.400;11.770;2022-11-20T00:31:23;11.00;83.60
14850;DHT22;7517;48.400;11.770;2022-11-20T00:33:50;11.00;83.60
14850;DHT22;7517;48.400;11.770;2022-11-20T00:36:20;11.00;83.70
14850;DHT22;7517;48.400;11.770;2022-11-20T00:38:52;11.00;83.90
14850;DHT22;7517;48.400;11.770;2022-11-20T00:41:21;11.00;83.80
14850;DHT22;7517;48.400;11.770;2022-11-20T00:43:49;11.00;83.70
14850;DHT22;7517;48.400;11.770;2022-11-20T00:46:19;11.00;83.90
14850;DHT22;7517;48.400;11.770;2022-11-20T00:48:48;11.00;83.90
14850;DHT22;7517;48.400;11.770;2022-11-20T00:51:17;11.00;83.70
14850;DHT22;7517;48.400;11.770;2022-11-20T00:53:46;11.00;83.50
14850;DHT22;7517;48.400;11.770;2022-11-20T00:56:15;11.00;83.50
14850;DHT22;7517;48.400;11.770;2022-11-20T00:58:47;11.00;83.50
14850;DHT22;7517;48.400;11.770;2022-11-20T01:01:16;11.00;83.60
14850;DHT22;7517;48.400;11.770;2022-11-20T01:03:45;11.00;83.80
14850;DHT22;7517;48.400;11.770;2022-11-20T01:06:17;11.00;83.80
14850;DHT22;7517;48.400;11.770;2022-11-20T01:08:46;11.00;83.90
14850;DHT22;7517;48.400;11.770;2022-11-20T01:11:15;11.00;84.00
14850;DHT22;7517;48.400;11.770;2022-11-20T01:13:45;11.00;84.00
14850;DHT22;7517;48.400;11.770;2022-11-20T01:16:15;11.00;83.90
14850;DHT22;7517;48.400;11.770;2022-11-20T01:18:46;11.00;83.80
14850;DHT22;7517;48.400;11.770;2022-11-20T01:21:15;11.00;83.70
14850;DHT22;7517;48.400;11.770;2022-11-20T01:23:44;11.00;83.90
14850;DHT22;7517;48.400;11.770;2022-11-20T01:26:14;11.00;84.10
14850;DHT22;7517;48.400;11.770;2022-11-20T01:28:42;11.00;84.00
14850;DHT22;7517;48.400;11.770;2022-11-20T01:31:12;11.00;84.10
14850;DHT22;7517;48.400;11.770;2022-11-20T01:33:42;11.10;84.10
14850;DHT22;7517;48.400;11.770;2022-11-20T01:36:11;11.10;84.10
14850;DHT22;7517;48.400;11.770;2022-11-20T01:38:39;11.10;83.90
14850;DHT22;7517;48.400;11.770;2022-11-20T01:41:07;11.10;84.00
14850;DHT22;7517;48.400;11.770;2022-11-20T01:43:36;11.10;84.00
14850;DHT22;7517;48.400;11.770;2022-11-20T01:46:13;11.10;83.90
14850;DHT22;7517;48.400;11.770;2022-11-20T01:48:46;11.10;83.80
14850;DHT22;7517;48.400;11.770;2022-11-20T01:51:24;11.10;83.70
14850;DHT22;7517;48.400;11.770;2022-11-20T01:53:56;11.10;83.70
14850;DHT22;7517;48.400;11.770;2022-11-20T01:56:28;11.10;83.80
14850;DHT22;7517;48.400;11.770;2022-11-20T01:58:59;11.20;83.80
14850;DHT22;7517;48.400;11.770;2022-11-20T02:01:32;11.20;83.80
14850;DHT22;7517;48.400;11.770;2022-11-20T02:04:00;11.20;83.70
14850;DHT22;7517;48.400;11.770;2022-11-20T02:06:29;11.20;83.70
14850;DHT22;7517;48.400;11.770;2022-11-20T02:08:59;11.20;83.60
14850;DHT22;7517;48.400;11.770;2022-11-20T02:11:27;11.20;83.60
14850;DHT22;7517;48.400;11.770;2022-11-20T02:13:56;11.20;83.60
14850;DHT22;7517;48.400;11.770;2022-11-20T02:16:27;11.20;83.60
14850;DHT22;7517;48.400;11.770;2022-11-20T02:19:00;11.20;83.40
14850;DHT22;7517;48.400;11.770;2022-11-20T02:21:34;11.20;83.50
14850;DHT22;7517;48.400;11.770;2022-11-20T02:24:12;11.20;83.30
14850;DHT22;7517;48.400;11.770;2022-11-20T02:26:46;11.20;83.10
14850;DHT22;7517;48.400;11.770;2022-11-20T02:29:22;11.20;83.00
14850;DHT22;7517;48.400;11.770;2022-11-20T02:31:54;11.20;83.00
14850;DHT22;7517;48.400;11.770;2022-11-20T02:34:23;11.20;82.90
14850;DHT22;7517;48.400;11.770;2022-11-20T02:36:51;11.20;82.90
14850;DHT22;7517;48.400;11.770;2022-11-20T02:39:23;11.20;82.80
14850;DHT22;7517;48.400;11.770;2022-11-20T02:41:54;11.20;82.90
14850;DHT22;7517;48.400;11.770;2022-11-20T02:44:23;11.20;82.80
14850;DHT22;7517;48.400;11.770;2022-11-20T02:46:50;11.10;83.30
14850;DHT22;7517;48.400;11.770;2022-11-20T02:49:18;11.10;82.50
14850;DHT22;7517;48.400;11.770;2022-11-20T02:51:45;11.10;82.50
14850;DHT22;7517;48.400;11.770;2022-11-20T02:54:12;11.10;82.60
14850;DHT22;7517;48.400;11.770;2022-11-20T02:56:40;11.10;82.50
14850;DHT22;7517;48.400;11.770;2022-11-20T02:59:08;11.10;82.50
14850;DHT22;7517;48.400;11.770;2022-11-20T03:01:35;11.00;82.30
14850;DHT22;7517;48.400;11.770;2022-11-20T03:04:03;11.00;82.30
14850;DHT22;7517;48.400;11.770;2022-11-20T03:06:31;11.00;82.30
14850;DHT22;7517;48.400;11.770;2022-11-20T03:08:58;11.00;82.30
14850;DHT22;7517;48.400;11.770;2022-11-20T03:11:25;11.00;82.30
14850;DHT22;7517;48.400;11.770;2022-11-20T03:13:54;11.00;82.30
14850;DHT22;7517;48.400;11.770;2022-11-20T03:16:22;10.90;82.20
14850;DHT22;7517;48.400;11.770;2022-11-20T03:18:52;10.90;82.30
14850;DHT22;7517;48.400;11.770;2022-11-20T03:21:19;10.90;82.40
14850;DHT22;7517;48.400;11.770;2022-11-20T03:23:46;10.90;82.40
14850;DHT22;7517;48.400;11.770;2022-11-20T03:26:16;10.90;82.50
14850;DHT22;7517;48.400;11.770;2022-11-20T03:28:47;10.90;82.60
14850;DHT22;7517;48.400;11.770;2022-11-20T03:31:17;10.90;82.40
14850;DHT22;7517;48.400;11.770;2022-11-20T03:33:47;10.90;82.20
14850;DHT22;7517;48.400;11.770;2022-11-20T03:36:16;10.90;82.20
14850;DHT22;7517;48.400;11.770;2022-11-20T03:38:45;10.90;82.20
14850;DHT22;7517;48.400;11.770;2022-11-20T03:41:15;10.90;82.30
14850;DHT22;7517;48.400;11.770;2022-11-20T03:43:47;10.90;82.30
14850;DHT22;7517;48.400;11.770;2022-11-20T03:46:17;10.90;82.10
14850;DHT22;7517;48.400;11.770;2022-11-20T03:48:44;10.80;82.00
14850;DHT22;7517;48.400;11.770;2022-11-20T03:51:14;10.80;81.90
14850;DHT22;7517;48.400;11.770;2022-11-20T03:53:45;10.80;82.10
14850;DHT22;7517;48.400;11.770;2022-11-20T03:56:15;10.80;82.20
14850;DHT22;7517;48.400;11.770;2022-11-20T03:58:43;10.80;82.30
14850;DHT22;7517;48.400;11.770;2022-11-20T04:01:12;10.80;82.40
14850;DHT22;7517;48.400;11.770;2022-11-20T04:03:44;10.80;82.40
14850;DHT22;7517;48.400;11.770;2022-11-20T04:06:13;10.80;82.30
14850;DHT22;7517;48.400;11.770;2022-11-20T04:08:42;10.80;82.30
14850;DHT22;7517;48.400;11.770;2022-11-20T04:11:10;10.80;82.30
14850;DHT22;7517;48.400;11.770;2022-11-20T04:13:39;10.80;82.30
14850;DHT22;7517;48.400;11.770;2022-11-20T04:16:08;10.80;82.30
14850;DHT22;7517;48.400;11.770;2022-11-20T04:18:36;10.80;82.30
14850;DHT22;7517;48.400;11.770;2022-11-20T04:21:05;10.80;82.20
14850;DHT22;7517;48.400;11.770;2022-11-20T04:23:33;10.80;82.00
14850;DHT22;7517;48.400;11.770;2022-11-20T04:26:02;10.80;81.90
14850;DHT22;7517;48.400;11.770;2022-11-20T04:28:30;10.80;82.00
14850;DHT22;7517;48.400;11.770;2022-11-20T04:31:05;10.80;82.00
14850;DHT22;7517;48.400;11.770;2022-11-20T04:33:34;10.80;82.00
14850;DHT22;7517;48.400;11.770;2022-11-20T04:36:03;10.80;81.60
14850;DHT22;7517;48.400;11.770;2022-11-20T04:38:33;10.80;81.50
14850;DHT22;7517;48.400;11.770;2022-11-20T04:41:04;10.80;81.70
14850;DHT22;7517;48.400;11.770;2022-11-20T04:43:33;10.80;81.90
14850;DHT22;7517;48.400;11.770;2022-11-20T04:46:01;10.80;82.10
14850;DHT22;7517;48.400;11.770;2022-11-20T04:48:29;10.80;81.80
14850;DHT22;7517;48.400;11.770;2022-11-20T04:50:57;10.80;81.50
14850;DHT22;7517;48.400;11.770;2022-11-20T04:53:25;10.80;81.40
14850;DHT22;7517;48.400;11.770;2022-11-20T04:55:59;10.80;81.40
14850;DHT22;7517;48.400;11.770;2022-11-20T04:58:27;10.80;81.30
14850;DHT22;7517;48.400;11.770;2022-11-20T05:01:00;10.80;81.40
14850;DHT22;7517;48.400;11.770;2022-11-20T05:03:29;10.80;81.30
14850;DHT22;7517;48.400;11.770;2022-11-20T05:05:59;10.80;81.40
14850;DHT22;7517;48.400;11.770;2022-11-20T05:08:28;10.80;81.40
14850;DHT22;7517;48.400;11.770;2022-11-20T05:11:00;10.80;81.40
14850;DHT22;7517;48.400;11.770;2022-11-20T05:13:28;10.80;81.40
14850;DHT22;7517;48.400;11.770;2022-11-20T05:15:55;10.80;81.40
14850;DHT22;7517;48.400;11.770;2022-11-20T05:18:28;10.80;81.20
14850;DHT22;7517;48.400;11.770;2022-11-20T05:20:55;10.70;81.10
14850;DHT22;7517;48.400;11.770;2022-11-20T05:23:23;10.80;81.30
14850;DHT22;7517;48.400;11.770;2022-11-20T05:25:54;10.80;81.20
14850;DHT22;7517;48.400;11.770;2022-11-20T05:28:22;10.80;81.30
14850;DHT22;7517;48.400;11.770;2022-11-20T05:30:50;10.80;81.40
14850;DHT22;7517;48.400;11.770;2022-11-20T05:33:18;10.70;81.00
14850;DHT22;7517;48.400;11.770;2022-11-20T05:35:47;10.70;80.80
14850;DHT22;7517;48.400;11.770;2022-11-20T05:38:15;10.70;80.90
14850;DHT22;7517;48.400;11.770;2022-11-20T05:40:42;10.70;80.90
14850;DHT22;7517;48.400;11.770;2022-11-20T05:43:11;10.80;81.10
14850;DHT22;7517;48.400;11.770;2022-11-20T05:45:38;10.80;81.30
14850;DHT22;7517;48.400;11.770;2022-11-20T05:48:05;10.70;81.40
14850;DHT22;7517;48.400;11.770;2022-11-20T05:50:32;10.80;81.30
14850;DHT22;7517;48.400;11.770;2022-11-20T05:53:00;10.70;81.00
14850;DHT22;7517;48.400;11.770;2022-11-20T05:55:27;10.80;81.10
14850;DHT22;7517;48.400;11.770;2022-11-20T05:57:55;10.80;81.30
14850;DHT22;7517;48.400;11.770;2022-11-20T06:00:23;10.80;81.20
14850;DHT22;7517;48.400;11.770;2022-11-20T06:02:50;10.80;81.10
14850;DHT22;7517;48.400;11.770;2022-11-20T06:05:18;10.80;80.90
14850;DHT22;7517;48.400;11.770;2022-11-20T06:07:45;10.80;80.80
14850;DHT22;7517;48.400;11.770;2022-11-20T06:10:12;10.70;80.80
14850;DHT22;7517;48.400;11.770;2022-11-20T06:12:39;10.80;80.80
14850;DHT22;7517;48.400;11.770;2022-11-20T06:15:07;10.70;80.70
14850;DHT22;7517;48.400;11.770;2022-11-20T06:17:36;10.80;80.80
14850;DHT22;7517;48.400;11.770;2022-11-20T06:20:05;10.70;80.70
14850;DHT22;7517;48.400;11.770;2022-11-20T06:22:33;10.70;80.80
14850;DHT22;7517;48.400;11.770;2022-11-20T06:25:00;10.70;80.70
14850;DHT22;7517;48.400;11.770;2022-11-20T06:27:27;10.70;80.50
14850;DHT22;7517;48.400;11.770;2022-11-20T06:29:54;10.70;80.60
14850;DHT22;7517;48.400;11.770;2022-11-20T06:32:21;10.70;80.60
14850;DHT22;7517;48.400;11.770;2022-11-20T06:34:50;10.70;80.60
14850;DHT22;7517;48.400;11.770;2022-11-20T06:37:17;10.70;80.70
14850;DHT22;7517;48.400;11.770;2022-11-20T06:39:44;10.60;80.70
14850;DHT22;7517;48.400;11.770;2022-11-20T06:42:12;10.60;80.90
14850;DHT22;7517;48.400;11.770;2022-11-20T06:44:39;10.60;81.10
14850;DHT22;7517;48.400;11.770;2022-11-20T06:47:06;10.60;81.20
14850;DHT22;7517;48.400;11.770;2022-11-20T06:49:33;10.60;81.20
14850;DHT22;7517;48.400;11.770;2022-11-20T06:52:04;10.70;81.30
14850;DHT22;7517;48.400;11.770;2022-11-20T06:54:31;10.70;81.40
14850;DHT22;7517;48.400;11.770;2022-11-20T06:56:58;10.70;81.30
14850;DHT22;7517;48.400;11.770;2022-11-20T06:59:25;10.70;81.20
14850;DHT22;7517;48.400;11.770;2022-11-20T07:01:53;10.70;80.90
14850;DHT22;7517;48.400;11.770;2022-11-20T07:04:20;10.70;80.90
14850;DHT22;7517;48.400;11.770;2022-11-20T07:06:48;10.70;80.80
14850;DHT22;7517;48.400;11.770;2022-11-20T07:09:17;10.70;80.50
14850;DHT22;7517;48.400;11.770;2022-11-20T07:11:44;10.70;80.40
14850;DHT22;7517;48.400;11.770;2022-11-20T07:14:11;10.70;80.60
14850;DHT22;7517;48.400;11.770;2022-11-20T07:16:39;10.70;80.80
14850;DHT22;7517;48.400;11.770;2022-11-20T07:19:06;10.70;80.80
14850;DHT22;7517;48.400;11.770;2022-11-20T07:21:33;10.70;80.80
14850;DHT22;7517;48.400;11.770;2022-11-20T07:24:01;10.80;81.00
14850;DHT22;7517;48.400;11.770;2022-11-20T07:26:29;10.80;81.10
14850;DHT22;7517;48.400;11.770;2022-11-20T07:28:56;10.70;80.90
14850;DHT22;7517;48.400;11.770;2022-11-20T07:31:24;10.80;81.00
14850;DHT22;7517;48.400;11.770;2022-11-20T07:33:51;10.80;81.10
14850;DHT22;7517;48.400;11.770;2022-11-20T07:36:18;10.80;81.20
14850;DHT22;7517;48.400;11.770;2022-11-20T07:38:45;10.80;81.10
14850;DHT22;7517;48.400;11.770;2022-11-20T07:41:13;10.80;81.10
14850;DHT22;7517;48.400;11.770;2022-11-20T07:43:41;10.80;81.00
14850;DHT22;7517;48.400;11.770;2022-11-20T07:46:08;10.80;81.10
14850;DHT22;7517;48.400;11.770;2022-11-20T07:48:36;10.80;81.20
14850;DHT22;7517;48.400;11.770;2022-11-20T07:51:03;10.90;81.40
14850;DHT22;7517;48.400;11.770;2022-11-20T07:53:30;10.90;81.30
14850;DHT22;7517;48.400;11.770;2022-11-20T07:55:59;10.90;81.00
14850;DHT22;7517;48.400;11.770;2022-11-20T07:58:29;10.90;80.70
14850;DHT22;7517;48.400;11.770;2022-11-20T08:01:02;10.90;80.50
14850;DHT22;7517;48.400;11.770;2022-11-20T08:03:30;11.00;80.40
14850;DHT22;7517;48.400;11.770;2022-11-20T08:05:58;10.90;80.40
14850;DHT22;7517;48.400;11.770;2022-11-20T08:08:27;11.00;80.60
14850;DHT22;7517;48.400;11.770;2022-11-20T08:10:56;11.00;80.50
14850;DHT22;7517;48.400;11.770;2022-11-20T08:13:44;11.00;80.20
14850;DHT22;7517;48.400;11.770;2022-11-20T08:16:30;11.00;80.10
14850;DHT22;7517;48.400;11.770;2022-11-20T08:18:58;11.00;80.50
14850;DHT22;7517;48.400;11.770;2022-11-20T08:21:25;11.00;80.60
14850;DHT22;7517;48.400;11.770;2022-11-20T08:23:52;11.10;80.60
14850;DHT22;7517;48.400;11.770;2022-11-20T08:26:21;11.10;80.50
14850;DHT22;7517;48.400;11.770;2022-11-20T08:28:48;11.10;80.30
14850;DHT22;7517;48.400;11.770;2022-11-20T08:31:15;11.10;79.80
14850;DHT22;7517;48.400;11.770;2022-11-20T08:33:44;11.10;79.70
14850;DHT22;7517;48.400;11.770;2022-11-20T08:36:11;11.10;79.90
14850;DHT22;7517;48.400;11.770;2022-11-20T08:38:38;11.10;80.10
14850;DHT22;7517;48.400;11.770;2022-11-20T08:41:05;11.20;79.90
14850;DHT22;7517;48.400;11.770;2022-11-20T08:43:54;11.20;80.10
14850;DHT22;7517;48.400;11.770;2022-11-20T08:46:23;11.20;79.90
14850;DHT22;7517;48.400;11.770;2022-11-20T08:48:52;11.30;79.90
14850;DHT22;7517;48.400;11.770;2022-11-20T08:51:20;11.30;79.50
14850;DHT22;7517;48.400;11.770;2022-11-20T08:53:47;11.30;79.50
14850;DHT22;7517;48.400;11.770;2022-11-20T08:56:15;11.30;79.10
14850;DHT22;7517;48.400;11.770;2022-11-20T08:58:43;11.30;78.80
14850;DHT22;7517;48.400;11.770;2022-11-20T09:01:10;11.30;79.40
14850;DHT22;7517;48.400;11.770;2022-11-20T09:03:38;11.40;78.50
14850;DHT22;7517;48.400;11.770;2022-11-20T09:06:07;11.40;78.40
14850;DHT22;7517;48.400;11.770;2022-11-20T09:08:34;11.40;78.50
14850;DHT22;7517;48.400;11.770;2022-11-20T09:11:03;11.40;78.80
14850;DHT22;7517;48.400;11.770;2022-11-20T09:13:31;11.40;78.60
14850;DHT22;7517;48.400;11.770;2022-11-20T09:16:03;11.50;78.50
14850;DHT22;7517;48.400;11.770;2022-11-20T09:18:32;11.50;78.10
14850;DHT22;7517;48.400;11.770;2022-11-20T09:21:03;11.50;78.00
14850;DHT22;7517;48.400;11.770;2022-11-20T09:23:35;11.50;78.10
14850;DHT22;7517;48.400;11.770;2022-11-20T09:26:04;11.60;78.90
14850;DHT22;7517;48.400;11.770;2022-11-20T09:28:32;11.60;78.00
14850;DHT22;7517;48.400;11.770;2022-11-20T09:30:59;11.60;77.60
14850;DHT22;7517;48.400;11.770;2022-11-20T09:33:27;11.60;77.90
14850;DHT22;7517;48.400;11.770;2022-11-20T09:35:54;11.60;77.90
14850;DHT22;7517;48.400;11.770;2022-11-20T09:38:23;11.70;77.70
14850;DHT22;7517;48.400;11.770;2022-11-20T09:40:55;11.70;78.40
14850;DHT22;7517;48.400;11.770;2022-11-20T09:43:31;11.70;77.90
14850;DHT22;7517;48.400;11.770;2022-11-20T09:46:09;11.80;77.70
14850;DHT22;7517;48.400;11.770;2022-11-20T09:48:52;11.80;77.40
14850;DHT22;7517;48.400;11.770;2022-11-20T09:51:37;11.80;77.20
14850;DHT22;7517;48.400;11.770;2022-11-20T09:54:17;11.90;77.00
14850;DHT22;7517;48.400;11.770;2022-11-20T09:56:50;11.90;77.30
14850;DHT22;7517;48.400;11.770;2022-11-20T09:59:30;11.90;77.20
14850;DHT22;7517;48.400;11.770;2022-11-20T10:02:07;12.00;77.30
14850;DHT22;7517;48.400;11.770;2022-11-20T10:04:46;12.00;77.30
14850;DHT22;7517;48.400;11.770;2022-11-20T10:07:22;12.00;77.10
14850;DHT22;7517;48.400;11.770;2022-11-20T10:09:58;12.00;76.90
14850;DHT22;7517;48.400;11.770;2022-11-20T10:12:32;12.10;76.90
14850;DHT22;7517;48.400;11.770;2022-11-20T10:15:14;12.10;76.50
14850;DHT22;7517;48.400;11.770;2022-11-20T10:18:05;12.10;76.20
14850;DHT22;7517;48.400;11.770;2022-11-20T10:20:48;12.20;76.00
14850;DHT22;7517;48.400;11.770;2022-11-20T10:23:45;12.20;76.30
14850;DHT22;7517;48.400;11.770;2022-11-20T10:26:29;12.20;75.40
14850;DHT22;7517;48.400;11.770;2022-11-20T10:29:11;12.20;76.30
14850;DHT22;7517;48.400;11.770;2022-11-20T10:31:43;12.30;76.50
14850;DHT22;7517;48.400;11.770;2022-11-20T10:34:21;12.30;76.10
14850;DHT22;7517;48.400;11.770;2022-11-20T10:36:55;12.30;75.60
14850;DHT22;7517;48.400;11.770;2022-11-20T10:39:34;12.30;75.80
14850;DHT22;7517;48.400;11.770;2022-11-20T10:42:11;12.30;75.50
14850;DHT22;7517;48.400;11.770;2022-11-20T10:44:49;12.40;75.80
14850;DHT22;7517;48.400;11.770;2022-11-20T10:47:30;12.40;76.00
14850;DHT22;7517;48.400;11.770;2022-11-20T10:50:03;12.40;76.10
14850;DHT22;7517;48.400;11.770;2022-11-20T10:52:36;12.50;75.70
14850;DHT22;7517;48.400;11.770;2022-11-20T10:55:22;12.50;75.80
14850;DHT22;7517;48.400;11.770;2022-11-20T10:58:03;12.60;75.20
14850;DHT22;7517;48.400;11.770;2022-11-20T11:00:37;12.60;75.00
14850;DHT22;7517;48.400;11.770;2022-11-20T11:03:17;12.60;76.10
14850;DHT22;7517;48.400;11.770;2022-11-20T11:05:51;12.70;74.70
14850;DHT22;7517;48.400;11.770;2022-11-20T11:08:27;12.70;75.20
14850;DHT22;7517;48.400;11.770;2022-11-20T11:11:02;12.70;74.90
14850;DHT22;7517;48.400;11.770;2022-11-20T11:13:43;12.70;74.90
14850;DHT22;7517;48.400;11.770;2022-11-20T11:16:20;12.70;74.70
14850;DHT22;7517;48.400;11.770;2022-11-20T11:18:48;12.70;74.40
14850;DHT22;7517;48.400;11.770;2022-11-20T11:21:21;12.70;74.70
14850;DHT22;7517;48.400;11.770;2022-11-20T19:02:24;10.30;75.10
14850;DHT22;7517;48.400;11.770;2022-11-20T19:04:52;10.20;75.90
14850;DHT22;7517;48.400;11.770;2022-11-20T19:07:21;10.10;76.00
14850;DHT22;7517;48.400;11.770;2022-11-20T19:09:51;10.10;75.80
14850;DHT22;7517;48.400;11.770;2022-11-20T19:12:19;10.00;75.80
14850;DHT22;7517;48.400;11.770;2022-11-20T19:14:47;10.00;76.10
14850;DHT22;7517;48.400;11.770;2022-11-20T19:17:14;10.00;76.00
14850;DHT22;7517;48.400;11.770;2022-11-20T19:19:43;9.90;76.00
14850;DHT22;7517;48.400;11.770;2022-11-20T19:22:11;9.90;76.20
14850;DHT22;7517;48.400;11.770;2022-11-20T19:24:38;9.90;76.50
14850;DHT22;7517;48.400;11.770;2022-11-20T19:27:05;9.90;76.60
14850;DHT22;7517;48.400;11.770;2022-11-20T19:29:33;9.80;76.60
14850;DHT22;7517;48.400;11.770;2022-11-20T19:32:00;9.80;76.40
14850;DHT22;7517;48.400;11.770;2022-11-20T19:34:29;9.80;76.40
14850;DHT22;7517;48.400;11.770;2022-11-20T19:36:58;9.80;76.50
14850;DHT22;7517;48.400;11.770;2022-11-20T19:39:26;9.80;76.50
14850;DHT22;7517;48.400;11.770;2022-11-20T19:41:53;9.80;76.40
14850;DHT22;7517;48.400;11.770;2022-11-20T19:44:22;9.80;76.40
14850;DHT22;7517;48.400;11.770;2022-11-20T19:46:50;9.80;76.20
14850;DHT22;7517;48.400;11.770;2022-11-20T19:49:17;9.80;76.40
14850;DHT22;7517;48.400;11.770;2022-11-20T19:51:47;9.70;76.40
14850;DHT22;7517;48.400;11.770;2022-11-20T19:54:17;9.70;76.40
14850;DHT22;7517;48.400;11.770;2022-11-20T19:56:51;9.70;76.50
14850;DHT22;7517;48.400;11.770;2022-11-20T19:59:25;9.70;76.70
14850;DHT22;7517;48.400;11.770;2022-11-20T20:05:25;9.70;76.40
14850;DHT22;7517;48.400;11.770;2022-11-20T20:07:53;9.70;76.70
14850;DHT22;7517;48.400;11.770;2022-11-20T20:10:21;9.80;76.90
14850;DHT22;7517;48.400;11.770;2022-11-20T20:12:48;9.80;77.00
14850;DHT22;7517;48.400;11.770;2022-11-20T20:15:16;9.80;77.30
14850;DHT22;7517;48.400;11.770;2022-11-20T20:17:43;9.80;77.40
14850;DHT22;7517;48.400;11.770;2022-11-20T20:20:10;9.80;77.10
14850;DHT22;7517;48.400;11.770;2022-11-20T20:22:38;9.80;77.00
14850;DHT22;7517;48.400;11.770;2022-11-20T20:25:05;9.80;77.20
14850;DHT22;7517;48.400;11.770;2022-11-20T20:27:34;9.80;77.10
14850;DHT22;7517;48.400;11.770;2022-11-20T20:30:02;9.80;77.20
14850;DHT22;7517;48.400;11.770;2022-11-20T20:32:31;9.80;77.40
14850;DHT22;7517;48.400;11.770;2022-11-20T20:34:58;9.80;77.30
14850;DHT22;7517;48.400;11.770;2022-11-20T20:37:25;9.80;77.20
14850;DHT22;7517;48.400;11.770;2022-11-20T20:39:53;9.80;77.30
14850;DHT22;7517;48.400;11.770;2022-11-20T20:42:20;9.80;77.10
14850;DHT22;7517;48.400;11.770;2022-11-20T20:44:48;9.80;77.00
14850;DHT22;7517;48.400;11.770;2022-11-20T20:47:37;9.80;76.90
14850;DHT22;7517;48.400;11.770;2022-11-20T20:50:07;9.80;76.90
14850;DHT22;7517;48.400;11.770;2022-11-20T20:52:36;9.80;76.80
14850;DHT22;7517;48.400;11.770;2022-11-20T20:55:04;9.80;76.80
14850;DHT22;7517;48.400;11.770;2022-11-20T20:57:32;9.80;76.80
14850;DHT22;7517;48.400;11.770;2022-11-20T21:00:02;9.80;77.10
14850;DHT22;7517;48.400;11.770;2022-11-20T21:02:30;9.80;77.20
14850;DHT22;7517;48.400;11.770;2022-11-20T21:04:57;9.80;77.10
14850;DHT22;7517;48.400;11.770;2022-11-20T21:07:26;9.80;77.10
14850;DHT22;7517;48.400;11.770;2022-11-20T21:09:53;9.80;77.20
14850;DHT22;7517;48.400;11.770;2022-11-20T21:12:21;9.80;77.10
14850;DHT22;7517;48.400;11.770;2022-11-20T21:14:48;9.80;77.10
14850;DHT22;7517;48.400;11.770;2022-11-20T21:17:16;9.80;77.30
14850;DHT22;7517;48.400;11.770;2022-11-20T21:19:44;9.80;77.20
14850;DHT22;7517;48.400;11.770;2022-11-20T21:22:11;9.80;77.20
14850;DHT22;7517;48.400;11.770;2022-11-20T21:24:37;9.80;77.10
14850;DHT22;7517;48.400;11.770;2022-11-20T21:27:05;9.80;77.30
14850;DHT22;7517;48.400;11.770;2022-11-20T21:29:32;9.80;77.40
14850;DHT22;7517;48.400;11.770;2022-11-20T21:31:59;9.80;77.20
14850;DHT22;7517;48.400;11.770;2022-11-20T21:34:28;9.80;77.40
14850;DHT22;7517;48.400;11.770;2022-11-20T21:36:55;9.80;77.60
14850;DHT22;7517;48.400;11.770;2022-11-20T21:39:22;9.80;77.90
14850;DHT22;7517;48.400;11.770;2022-11-20T21:41:50;9.80;77.80
14850;DHT22;7517;48.400;11.770;2022-11-20T21:44:17;9.80;78.00
14850;DHT22;7517;48.400;11.770;2022-11-20T21:46:44;9.80;78.00
14850;DHT22;7517;48.400;11.770;2022-11-20T21:49:12;9.90;78.00
14850;DHT22;7517;48.400;11.770;2022-11-20T21:51:43;9.90;77.90
14850;DHT22;7517;48.400;11.770;2022-11-20T21:54:10;9.90;78.40
14850;DHT22;7517;48.400;11.770;2022-11-20T21:56:38;9.90;77.70
14850;DHT22;7517;48.400;11.770;2022-11-20T21:59:05;9.90;77.40
14850;DHT22;7517;48.400;11.770;2022-11-20T22:01:32;9.90;77.30
14850;DHT22;7517;48.400;11.770;2022-11-20T22:04:01;9.90;77.40
14850;DHT22;7517;48.400;11.770;2022-11-20T22:06:30;9.90;77.80
14850;DHT22;7517;48.400;11.770;2022-11-20T22:09:00;9.90;77.90
14850;DHT22;7517;48.400;11.770;2022-11-20T22:11:28;9.90;78.00
14850;DHT22;7517;48.400;11.770;2022-11-20T22:13:55;9.90;78.20
14850;DHT22;7517;48.400;11.770;2022-11-20T22:16:40;9.90;78.30
14850;DHT22;7517;48.400;11.770;2022-11-20T22:19:07;9.90;78.50
14850;DHT22;7517;48.400;11.770;2022-11-20T22:21:34;9.90;78.60
14850;DHT22;7517;48.400;11.770;2022-11-20T22:24:06;9.90;78.50
14850;DHT22;7517;48.400;11.770;2022-11-20T22:26:35;9.90;78.50
14850;DHT22;7517;48.400;11.770;2022-11-20T22:29:02;9.90;78.50
14850;DHT22;7517;48.400;11.770;2022-11-20T22:31:30;9.90;78.70
14850;DHT22;7517;48.400;11.770;2022-11-20T22:33:59;9.90;78.80
14850;DHT22;7517;48.400;11.770;2022-11-20T22:36:29;9.90;79.00
14850;DHT22;7517;48.400;11.770;2022-11-20T22:38:57;10.00;79.00
14850;DHT22;7517;48.400;11.770;2022-11-20T22:41:29;9.90;79.00
14850;DHT22;7517;48.400;11.770;2022-11-20T22:43:58;9.90;79.10
14850;DHT22;7517;48.400;11.770;2022-11-20T22:46:28;9.90;79.10
14850;DHT22;7517;48.400;11.770;2022-11-20T22:48:58;9.90;79.20
14850;DHT22;7517;48.400;11.770;2022-11-20T22:51:27;9.90;79.30
14850;DHT22;7517;48.400;11.770;2022-11-20T22:53:57;9.90;79.20
14850;DHT22;7517;48.400;11.770;2022-11-20T22:56:25;9.90;79.20
14850;DHT22;7517;48.400;11.770;2022-11-20T22:58:54;9.90;79.40
14850;DHT22;7517;48.400;11.770;2022-11-20T23:01:23;9.90;79.30
14850;DHT22;7517;48.400;11.770;2022-11-20T23:03:54;9.90;79.20
14850;DHT22;7517;48.400;11.770;2022-11-20T23:06:23;9.80;79.30
14850;DHT22;7517;48.400;11.770;2022-11-20T23:08:51;9.80;79.40
14850;DHT22;7517;48.400;11.770;2022-11-20T23:11:20;9.80;79.60
14850;DHT22;7517;48.400;11.770;2022-11-20T23:13:52;9.80;79.80
14850;DHT22;7517;48.400;11.770;2022-11-20T23:16:22;9.80;79.90
14850;DHT22;7517;48.400;11.770;2022-11-20T23:18:53;9.70;79.70
14850;DHT22;7517;48.400;11.770;2022-11-20T23:21:20;9.70;79.70
14850;DHT22;7517;48.400;11.770;2022-11-20T23:23:49;9.70;79.90
14850;DHT22;7517;48.400;11.770;2022-11-20T23:26:18;9.70;80.00
14850;DHT22;7517;48.400;11.770;2022-11-20T23:28:47;9.60;80.10
14850;DHT22;7517;48.400;11.770;2022-11-20T23:31:16;9.60;80.20
14850;DHT22;7517;48.400;11.770;2022-11-20T23:33:44;9.60;80.20